sensor_id;sensor_type;location;lat;lon;timestamp;temperature;humidity
11961;DHT22;6040;49.358;11.140;2024-03-22T00:00:17;5.70;99.90
11961;DHT22;6040;49.358;11.140;2024-03-22T00:02:43;5.70;99.90
11961;DHT22;6040;49.358;11.140;2024-03-22T00:05:10;5.60;99.90
11961;DHT22;6040;49.358;11.140;2024-03-22T00:07:36;5.60;99.90
11961;DHT22;6040;49.358;11.140;2024-03-22T00:10:04;5.60;99.90
11961;DHT22;6040;49.358;11.140;2024-03-22T00:12:30;5.50;99.90
11961;DHT22;6040;49.358;11.140;2024-03-22T00:14:57;5.60;99.90
11961;DHT22;6040;49.358;11.140;2024-03-22T00:17:24;5.70;99.90
11961;DHT22;6040;49.358;11.140;2024-03-22T00:19:52;5.60;99.90
11961;DHT22;6040;49.358;11.140;2024-03-22T00:22:18;6.20;99.90
11961;DHT22;6040;49.358;11.140;2024-03-22T00:24:45;5.60;99.90
11961;DHT22;6040;49.358;11.140;2024-03-22T00:27:11;5.50;99.90
11961;DHT22;6040;49.358;11.140;2024-03-22T00:29:38;5.50;99.90
11961;DHT22;6040;49.358;11.140;2024-03-22T00:32:04;5.40;99.90
11961;DHT22;6040;49.358;11.140;2024-03-22T00:34:34;5.40;99.90
11961;DHT22;6040;49.358;11.140;2024-03-22T00:37:00;5.20;99.90
11961;DHT22;6040;49.358;11.140;2024-03-22T00:39:27;5.20;99.90
11961;DHT22;6040;49.358;11.140;2024-03-22T00:41:53;5.20;99.90
11961;DHT22;6040;49.358;11.140;2024-03-22T00:44:19;5.30;99.90
11961;DHT22;6040;49.358;11.140;2024-03-22T00:46:45;5.20;99.90
11961;DHT22;6040;49.358;11.140;2024-03-22T00:49:12;5.90;99.90
11961;DHT22;6040;49.358;11.140;2024-03-22T00:51:39;5.00;99.90
11961;DHT22;6040;49.358;11.140;2024-03-22T00:54:08;5.30;99.90
11961;DHT22;6040;49.358;11.140;2024-03-22T00:56:34;5.00;99.90
11961;DHT22;6040;49.358;11.140;2024-03-22T00:59:01;5.00;99.90
11961;DHT22;6040;49.358;11.140;2024-03-22T01:01:27;4.90;99.90
11961;DHT22;6040;49.358;11.140;2024-03-22T01:03:53;4.90;99.90
11961;DHT22;6040;49.358;11.140;2024-03-22T01:06:19;4.80;99.90
11961;DHT22;6040;49.358;11.140;2024-03-22T01:08:51;5.50;99.90
11961;DHT22;6040;49.358;11.140;2024-03-22T01:11:17;4.70;99.90
11961;DHT22;6040;49.358;11.140;2024-03-22T01:13:44;4.70;99.90
11961;DHT22;6040;49.358;11.140;2024-03-22T01:16:10;5.00;99.90
11961;DHT22;6040;49.358;11.140;2024-03-22T01:18:37;4.00;99.90
11961;DHT22;6040;49.358;11.140;2024-03-22T01:21:03;4.60;99.90
11961;DHT22;6040;49.358;11.140;2024-03-22T01:23:30;4.60;99.90
11961;DHT22;6040;49.358;11.140;2024-03-22T01:25:57;4.40;99.90
11961;DHT22;6040;49.358;11.140;2024-03-22T01:28:24;4.50;99.90
11961;DHT22;6040;49.358;11.140;2024-03-22T01:30:50;4.40;99.90
11961;DHT22;6040;49.358;11.140;2024-03-22T01:33:17;4.30;99.90
11961;DHT22;6040;49.358;11.140;2024-03-22T01:35:43;4.40;99.90
11961;DHT22;6040;49.358;11.140;2024-03-22T01:38:09;4.40;99.90
11961;DHT22;6040;49.358;11.140;2024-03-22T01:40:35;4.30;99.90
11961;DHT22;6040;49.358;11.140;2024-03-22T01:43:03;4.50;99.90
11961;DHT22;6040;49.358;11.140;2024-03-22T01:45:32;4.10;99.90
11961;DHT22;6040;49.358;11.140;2024-03-22T01:48:00;4.40;99.90
11961;DHT22;6040;49.358;11.140;2024-03-22T01:50:27;4.10;99.90
11961;DHT22;6040;49.358;11.140;2024-03-22T01:52:54;4.00;99.90
11961;DHT22;6040;49.358;11.140;2024-03-22T01:55:20;4.10;99.90
11961;DHT22;6040;49.358;11.140;2024-03-22T01:57:48;3.80;99.90
11961;DHT22;6040;49.358;11.140;2024-03-22T02:00:16;4.00;99.90
11961;DHT22;6040;49.358;11.140;2024-03-22T02:02:42;3.90;99.90
11961;DHT22;6040;49.358;11.140;2024-03-22T02:05:12;3.80;99.90
11961;DHT22;6040;49.358;11.140;2024-03-22T02:07:38;3.90;99.90
11961;DHT22;6040;49.358;11.140;2024-03-22T02:10:05;3.80;99.90
11961;DHT22;6040;49.358;11.140;2024-03-22T02:12:33;3.80;99.90
11961;DHT22;6040;49.358;11.140;2024-03-22T02:14:59;3.60;99.90
11961;DHT22;6040;49.358;11.140;2024-03-22T02:17:27;3.60;99.90
11961;DHT22;6040;49.358;11.140;2024-03-22T02:19:53;3.50;99.90
11961;DHT22;6040;49.358;11.140;2024-03-22T02:22:19;3.60;99.90
11961;DHT22;6040;49.358;11.140;2024-03-22T02:24:47;3.70;99.90
11961;DHT22;6040;49.358;11.140;2024-03-22T02:27:13;3.40;99.90
11961;DHT22;6040;49.358;11.140;2024-03-22T02:29:39;3.60;99.90
11961;DHT22;6040;49.358;11.140;2024-03-22T02:32:06;3.90;99.90
11961;DHT22;6040;49.358;11.140;2024-03-22T02:36:59;3.40;99.90
11961;DHT22;6040;49.358;11.140;2024-03-22T02:39:25;3.50;99.90
11961;DHT22;6040;49.358;11.140;2024-03-22T02:41:53;3.50;99.90
11961;DHT22;6040;49.358;11.140;2024-03-22T02:44:19;3.30;99.90
11961;DHT22;6040;49.358;11.140;2024-03-22T02:46:46;3.10;99.90
11961;DHT22;6040;49.358;11.140;2024-03-22T02:49:12;3.20;99.90
11961;DHT22;6040;49.358;11.140;2024-03-22T02:51:39;3.50;99.90
11961;DHT22;6040;49.358;11.140;2024-03-22T02:54:05;3.20;99.90
11961;DHT22;6040;49.358;11.140;2024-03-22T02:56:32;3.20;99.90
11961;DHT22;6040;49.358;11.140;2024-03-22T02:58:59;3.20;99.90
11961;DHT22;6040;49.358;11.140;2024-03-22T03:01:26;3.10;99.90
11961;DHT22;6040;49.358;11.140;2024-03-22T03:03:52;3.60;99.90
11961;DHT22;6040;49.358;11.140;2024-03-22T03:06:18;3.40;99.90
11961;DHT22;6040;49.358;11.140;2024-03-22T03:08:45;3.10;99.90
11961;DHT22;6040;49.358;11.140;2024-03-22T03:11:12;3.00;99.90
11961;DHT22;6040;49.358;11.140;2024-03-22T03:13:38;3.10;99.90
11961;DHT22;6040;49.358;11.140;2024-03-22T03:16:07;2.90;99.90
11961;DHT22;6040;49.358;11.140;2024-03-22T03:18:32;2.80;99.90
11961;DHT22;6040;49.358;11.140;2024-03-22T03:20:59;3.20;99.90
11961;DHT22;6040;49.358;11.140;2024-03-22T03:23:25;2.80;99.90
11961;DHT22;6040;49.358;11.140;2024-03-22T03:25:52;3.30;99.90
11961;DHT22;6040;49.358;11.140;2024-03-22T03:28:18;2.90;99.90
11961;DHT22;6040;49.358;11.140;2024-03-22T03:30:44;2.90;99.90
11961;DHT22;6040;49.358;11.140;2024-03-22T03:33:12;3.00;99.90
11961;DHT22;6040;49.358;11.140;2024-03-22T03:35:38;2.90;99.90
11961;DHT22;6040;49.358;11.140;2024-03-22T03:38:04;2.90;99.90
11961;DHT22;6040;49.358;11.140;2024-03-22T03:40:31;2.70;99.90
11961;DHT22;6040;49.358;11.140;2024-03-22T03:42:57;2.90;99.90
11961;DHT22;6040;49.358;11.140;2024-03-22T03:45:23;2.90;99.90
11961;DHT22;6040;49.358;11.140;2024-03-22T03:47:49;4.10;99.90
11961;DHT22;6040;49.358;11.140;2024-03-22T03:50:17;3.80;99.90
11961;DHT22;6040;49.358;11.140;2024-03-22T03:52:43;2.80;99.90
11961;DHT22;6040;49.358;11.140;2024-03-22T03:55:10;2.60;99.90
11961;DHT22;6040;49.358;11.140;2024-03-22T03:57:36;2.60;99.90
11961;DHT22;6040;49.358;11.140;2024-03-22T04:00:03;2.70;99.90
11961;DHT22;6040;49.358;11.140;2024-03-22T04:02:29;2.70;99.90
11961;DHT22;6040;49.358;11.140;2024-03-22T04:04:56;2.60;99.90
11961;DHT22;6040;49.358;11.140;2024-03-22T04:07:23;2.40;99.90
11961;DHT22;6040;49.358;11.140;2024-03-22T04:09:50;2.40;99.90
11961;DHT22;6040;49.358;11.140;2024-03-22T04:12:15;2.40;99.90
11961;DHT22;6040;49.358;11.140;2024-03-22T04:14:42;2.40;99.90
11961;DHT22;6040;49.358;11.140;2024-03-22T04:17:08;2.50;99.90
11961;DHT22;6040;49.358;11.140;2024-03-22T04:19:35;2.80;99.90
11961;DHT22;6040;49.358;11.140;2024-03-22T04:22:00;3.50;99.90
11961;DHT22;6040;49.358;11.140;2024-03-22T04:24:29;2.40;99.90
11961;DHT22;6040;49.358;11.140;2024-03-22T04:26:55;2.50;99.90
11961;DHT22;6040;49.358;11.140;2024-03-22T04:29:22;3.60;99.90
11961;DHT22;6040;49.358;11.140;2024-03-22T04:31:52;2.50;99.90
11961;DHT22;6040;49.358;11.140;2024-03-22T04:34:17;2.50;99.90
11961;DHT22;6040;49.358;11.140;2024-03-22T04:36:44;2.30;99.90
11961;DHT22;6040;49.358;11.140;2024-03-22T04:39:10;2.30;99.90
11961;DHT22;6040;49.358;11.140;2024-03-22T04:41:39;2.50;99.90
11961;DHT22;6040;49.358;11.140;2024-03-22T04:44:05;2.50;99.90
11961;DHT22;6040;49.358;11.140;2024-03-22T04:46:32;2.20;99.90
11961;DHT22;6040;49.358;11.140;2024-03-22T04:48:59;2.30;99.90
11961;DHT22;6040;49.358;11.140;2024-03-22T04:51:25;2.30;99.90
11961;DHT22;6040;49.358;11.140;2024-03-22T04:53:51;2.50;99.90
11961;DHT22;6040;49.358;11.140;2024-03-22T04:56:17;2.50;99.90
11961;DHT22;6040;49.358;11.140;2024-03-22T04:58:45;2.50;99.90
11961;DHT22;6040;49.358;11.140;2024-03-22T05:01:11;2.40;99.90
11961;DHT22;6040;49.358;11.140;2024-03-22T05:03:38;2.40;99.90
11961;DHT22;6040;49.358;11.140;2024-03-22T05:06:06;2.50;99.90
11961;DHT22;6040;49.358;11.140;2024-03-22T05:08:33;2.50;99.90
11961;DHT22;6040;49.358;11.140;2024-03-22T05:10:59;2.50;99.90
11961;DHT22;6040;49.358;11.140;2024-03-22T05:13:25;3.50;99.90
11961;DHT22;6040;49.358;11.140;2024-03-22T05:15:53;2.60;99.90
11961;DHT22;6040;49.358;11.140;2024-03-22T05:18:19;2.50;99.90
11961;DHT22;6040;49.358;11.140;2024-03-22T05:20:45;2.60;99.90
11961;DHT22;6040;49.358;11.140;2024-03-22T05:23:12;2.50;99.90
11961;DHT22;6040;49.358;11.140;2024-03-22T05:25:38;2.60;99.90
11961;DHT22;6040;49.358;11.140;2024-03-22T05:28:05;2.70;99.90
11961;DHT22;6040;49.358;11.140;2024-03-22T05:30:30;3.30;99.90
11961;DHT22;6040;49.358;11.140;2024-03-22T05:32:59;2.50;99.90
11961;DHT22;6040;49.358;11.140;2024-03-22T05:35:25;2.60;99.90
11961;DHT22;6040;49.358;11.140;2024-03-22T05:37:51;2.70;99.90
11961;DHT22;6040;49.358;11.140;2024-03-22T05:40:17;3.20;99.90
11961;DHT22;6040;49.358;11.140;2024-03-22T05:42:44;2.60;99.90
11961;DHT22;6040;49.358;11.140;2024-03-22T05:45:11;3.10;99.90
11961;DHT22;6040;49.358;11.140;2024-03-22T05:47:36;2.80;99.90
11961;DHT22;6040;49.358;11.140;2024-03-22T05:50:06;2.60;99.90
11961;DHT22;6040;49.358;11.140;2024-03-22T05:52:34;2.90;99.90
11961;DHT22;6040;49.358;11.140;2024-03-22T05:55:00;2.60;99.90
11961;DHT22;6040;49.358;11.140;2024-03-22T05:57:26;2.60;99.90
11961;DHT22;6040;49.358;11.140;2024-03-22T05:59:53;3.50;99.90
11961;DHT22;6040;49.358;11.140;2024-03-22T06:02:19;2.50;99.90
11961;DHT22;6040;49.358;11.140;2024-03-22T06:07:14;3.00;99.90
11961;DHT22;6040;49.358;11.140;2024-03-22T06:09:42;3.10;99.90
11961;DHT22;6040;49.358;11.140;2024-03-22T06:12:11;3.20;99.90
11961;DHT22;6040;49.358;11.140;2024-03-22T06:14:39;3.60;99.90
11961;DHT22;6040;49.358;11.140;2024-03-22T06:17:05;3.40;99.90
11961;DHT22;6040;49.358;11.140;2024-03-22T06:19:32;3.90;99.90
11961;DHT22;6040;49.358;11.140;2024-03-22T06:21:58;3.90;99.90
11961;DHT22;6040;49.358;11.140;2024-03-22T06:24:26;3.60;99.90
11961;DHT22;6040;49.358;11.140;2024-03-22T06:26:52;3.90;99.90
11961;DHT22;6040;49.358;11.140;2024-03-22T06:29:19;4.70;99.90
11961;DHT22;6040;49.358;11.140;2024-03-22T06:31:46;4.30;99.90
11961;DHT22;6040;49.358;11.140;2024-03-22T06:34:16;4.50;99.90
11961;DHT22;6040;49.358;11.140;2024-03-22T06:36:42;4.70;99.90
11961;DHT22;6040;49.358;11.140;2024-03-22T06:39:09;5.20;99.90
11961;DHT22;6040;49.358;11.140;2024-03-22T06:41:37;6.00;99.90
11961;DHT22;6040;49.358;11.140;2024-03-22T06:44:04;6.60;99.90
11961;DHT22;6040;49.358;11.140;2024-03-22T06:46:30;7.80;99.90
11961;DHT22;6040;49.358;11.140;2024-03-22T06:48:57;10.10;99.90
11961;DHT22;6040;49.358;11.140;2024-03-22T06:51:23;11.20;99.90
11961;DHT22;6040;49.358;11.140;2024-03-22T06:56:17;12.50;99.90
11961;DHT22;6040;49.358;11.140;2024-03-22T06:58:45;11.10;99.90
11961;DHT22;6040;49.358;11.140;2024-03-22T07:01:10;9.90;99.90
11961;DHT22;6040;49.358;11.140;2024-03-22T07:03:37;9.70;99.90
11961;DHT22;6040;49.358;11.140;2024-03-22T07:06:03;9.10;99.90
11961;DHT22;6040;49.358;11.140;2024-03-22T07:08:31;9.00;99.90
11961;DHT22;6040;49.358;11.140;2024-03-22T07:10:57;8.60;99.90
11961;DHT22;6040;49.358;11.140;2024-03-22T07:13:25;8.70;99.90
11961;DHT22;6040;49.358;11.140;2024-03-22T07:15:52;8.00;99.90
11961;DHT22;6040;49.358;11.140;2024-03-22T07:18:19;7.70;99.90
11961;DHT22;6040;49.358;11.140;2024-03-22T07:20:45;7.40;99.90
11961;DHT22;6040;49.358;11.140;2024-03-22T07:23:13;7.50;99.90
11961;DHT22;6040;49.358;11.140;2024-03-22T07:25:39;8.60;99.90
11961;DHT22;6040;49.358;11.140;2024-03-22T07:28:08;7.50;99.90
11961;DHT22;6040;49.358;11.140;2024-03-22T07:30:34;7.70;99.90
11961;DHT22;6040;49.358;11.140;2024-03-22T07:33:03;7.80;99.90
11961;DHT22;6040;49.358;11.140;2024-03-22T07:35:28;8.20;99.90
11961;DHT22;6040;49.358;11.140;2024-03-22T07:37:56;7.80;99.90
11961;DHT22;6040;49.358;11.140;2024-03-22T07:40:22;8.10;99.90
11961;DHT22;6040;49.358;11.140;2024-03-22T07:42:48;8.60;99.90
11961;DHT22;6040;49.358;11.140;2024-03-22T07:45:14;7.60;99.90
11961;DHT22;6040;49.358;11.140;2024-03-22T07:47:41;7.80;99.90
11961;DHT22;6040;49.358;11.140;2024-03-22T07:50:10;7.80;99.90
11961;DHT22;6040;49.358;11.140;2024-03-22T07:52:37;8.20;99.90
11961;DHT22;6040;49.358;11.140;2024-03-22T07:55:03;7.90;99.90
11961;DHT22;6040;49.358;11.140;2024-03-22T07:57:30;8.00;99.90
11961;DHT22;6040;49.358;11.140;2024-03-22T07:59:56;8.00;99.90
11961;DHT22;6040;49.358;11.140;2024-03-22T08:02:23;8.20;99.90
11961;DHT22;6040;49.358;11.140;2024-03-22T08:04:49;8.10;99.90
11961;DHT22;6040;49.358;11.140;2024-03-22T08:07:17;8.30;99.90
11961;DHT22;6040;49.358;11.140;2024-03-22T08:09:43;8.50;99.90
11961;DHT22;6040;49.358;11.140;2024-03-22T08:12:09;8.60;99.90
11961;DHT22;6040;49.358;11.140;2024-03-22T08:14:35;9.50;99.90
11961;DHT22;6040;49.358;11.140;2024-03-22T08:17:03;8.60;99.90
11961;DHT22;6040;49.358;11.140;2024-03-22T08:19:29;8.70;99.90
11961;DHT22;6040;49.358;11.140;2024-03-22T08:21:55;8.90;99.90
11961;DHT22;6040;49.358;11.140;2024-03-22T08:24:23;9.00;99.90
11961;DHT22;6040;49.358;11.140;2024-03-22T08:26:50;9.50;99.90
11961;DHT22;6040;49.358;11.140;2024-03-22T08:29:16;10.00;99.90
11961;DHT22;6040;49.358;11.140;2024-03-22T08:31:43;10.20;99.90
11961;DHT22;6040;49.358;11.140;2024-03-22T08:34:08;9.50;99.90
11961;DHT22;6040;49.358;11.140;2024-03-22T08:36:35;9.50;99.90
11961;DHT22;6040;49.358;11.140;2024-03-22T08:39:01;9.70;99.90
11961;DHT22;6040;49.358;11.140;2024-03-22T08:41:30;9.90;99.90
11961;DHT22;6040;49.358;11.140;2024-03-22T08:43:55;10.00;99.90
11961;DHT22;6040;49.358;11.140;2024-03-22T08:46:22;10.20;99.90
11961;DHT22;6040;49.358;11.140;2024-03-22T08:48:50;10.50;99.90
11961;DHT22;6040;49.358;11.140;2024-03-22T08:51:17;12.20;99.90
11961;DHT22;6040;49.358;11.140;2024-03-22T08:53:42;10.90;99.90
11961;DHT22;6040;49.358;11.140;2024-03-22T08:56:09;11.20;99.90
11961;DHT22;6040;49.358;11.140;2024-03-22T08:58:36;11.60;99.90
11961;DHT22;6040;49.358;11.140;2024-03-22T09:01:03;12.60;99.90
11961;DHT22;6040;49.358;11.140;2024-03-22T09:03:30;12.80;99.90
11961;DHT22;6040;49.358;11.140;2024-03-22T09:05:57;14.20;99.90
11961;DHT22;6040;49.358;11.140;2024-03-22T09:08:23;14.80;99.90
11961;DHT22;6040;49.358;11.140;2024-03-22T09:10:50;15.40;99.90
11961;DHT22;6040;49.358;11.140;2024-03-22T09:13:16;15.50;99.90
11961;DHT22;6040;49.358;11.140;2024-03-22T09:15:44;15.60;99.90
11961;DHT22;6040;49.358;11.140;2024-03-22T09:18:10;15.50;99.90
11961;DHT22;6040;49.358;11.140;2024-03-22T09:20:37;16.50;99.90
11961;DHT22;6040;49.358;11.140;2024-03-22T09:23:03;15.80;99.90
11961;DHT22;6040;49.358;11.140;2024-03-22T09:25:30;16.00;99.90
11961;DHT22;6040;49.358;11.140;2024-03-22T09:35:18;18.10;99.90
11961;DHT22;6040;49.358;11.140;2024-03-22T09:37:44;18.10;99.90
11961;DHT22;6040;49.358;11.140;2024-03-22T09:40:11;18.50;99.90
11961;DHT22;6040;49.358;11.140;2024-03-22T09:42:38;19.00;99.90
11961;DHT22;6040;49.358;11.140;2024-03-22T09:45:08;18.60;99.90
11961;DHT22;6040;49.358;11.140;2024-03-22T09:47:34;18.70;99.90
11961;DHT22;6040;49.358;11.140;2024-03-22T09:50:06;19.00;99.90
11961;DHT22;6040;49.358;11.140;2024-03-22T09:57:31;18.40;99.90
11961;DHT22;6040;49.358;11.140;2024-03-22T09:59:59;18.80;99.90
11961;DHT22;6040;49.358;11.140;2024-03-22T10:02:25;19.00;99.90
11961;DHT22;6040;49.358;11.140;2024-03-22T10:04:52;18.90;99.90
11961;DHT22;6040;49.358;11.140;2024-03-22T10:07:20;19.10;99.90
11961;DHT22;6040;49.358;11.140;2024-03-22T10:09:46;19.40;99.90
11961;DHT22;6040;49.358;11.140;2024-03-22T10:12:12;19.50;99.90
11961;DHT22;6040;49.358;11.140;2024-03-22T10:14:42;20.10;99.90
11961;DHT22;6040;49.358;11.140;2024-03-22T10:17:08;19.50;99.90
11961;DHT22;6040;49.358;11.140;2024-03-22T10:22:03;19.30;99.90
11961;DHT22;6040;49.358;11.140;2024-03-22T10:24:32;19.80;99.90
11961;DHT22;6040;49.358;11.140;2024-03-22T10:26:58;20.20;99.90
11961;DHT22;6040;49.358;11.140;2024-03-22T10:29:25;20.40;99.90
11961;DHT22;6040;49.358;11.140;2024-03-22T10:31:53;20.30;99.90
11961;DHT22;6040;49.358;11.140;2024-03-22T10:34:21;20.40;99.90
11961;DHT22;6040;49.358;11.140;2024-03-22T10:36:47;20.50;99.90
11961;DHT22;6040;49.358;11.140;2024-03-22T10:39:18;20.70;99.90
11961;DHT22;6040;49.358;11.140;2024-03-22T10:41:46;20.90;99.90
11961;DHT22;6040;49.358;11.140;2024-03-22T10:44:13;20.70;99.90
11961;DHT22;6040;49.358;11.140;2024-03-22T10:46:43;20.80;99.90
11961;DHT22;6040;49.358;11.140;2024-03-22T10:49:15;21.00;99.90
11961;DHT22;6040;49.358;11.140;2024-03-22T10:51:43;21.60;99.90
11961;DHT22;6040;49.358;11.140;2024-03-22T10:54:15;21.30;99.80
11961;DHT22;6040;49.358;11.140;2024-03-22T10:56:46;21.40;98.10
11961;DHT22;6040;49.358;11.140;2024-03-22T10:59:14;21.20;98.50
11961;DHT22;6040;49.358;11.140;2024-03-22T11:01:44;21.30;98.10
11961;DHT22;6040;49.358;11.140;2024-03-22T11:04:11;21.30;98.30
11961;DHT22;6040;49.358;11.140;2024-03-22T11:06:37;21.20;97.60
11961;DHT22;6040;49.358;11.140;2024-03-22T11:09:04;21.10;99.90
11961;DHT22;6040;49.358;11.140;2024-03-22T11:11:30;21.00;98.00
11961;DHT22;6040;49.358;11.140;2024-03-22T11:14:04;21.10;98.70
11961;DHT22;6040;49.358;11.140;2024-03-22T11:16:30;21.80;99.30
11961;DHT22;6040;49.358;11.140;2024-03-22T11:18:56;21.50;97.30
11961;DHT22;6040;49.358;11.140;2024-03-22T11:21:22;21.40;97.00
11961;DHT22;6040;49.358;11.140;2024-03-22T11:23:49;21.10;96.30
11961;DHT22;6040;49.358;11.140;2024-03-22T11:26:15;21.00;99.90
11961;DHT22;6040;49.358;11.140;2024-03-22T11:28:42;21.00;95.40
11961;DHT22;6040;49.358;11.140;2024-03-22T11:31:09;21.10;96.60
11961;DHT22;6040;49.358;11.140;2024-03-22T11:33:36;20.90;96.70
11961;DHT22;6040;49.358;11.140;2024-03-22T11:36:03;21.30;97.30
11961;DHT22;6040;49.358;11.140;2024-03-22T11:38:31;21.50;96.90
11961;DHT22;6040;49.358;11.140;2024-03-22T11:40:57;21.60;93.90
11961;DHT22;6040;49.358;11.140;2024-03-22T11:43:27;21.60;95.20
11961;DHT22;6040;49.358;11.140;2024-03-22T11:45:54;21.50;92.90
11961;DHT22;6040;49.358;11.140;2024-03-22T11:48:22;21.10;99.90
11961;DHT22;6040;49.358;11.140;2024-03-22T11:50:49;21.20;99.30
11961;DHT22;6040;49.358;11.140;2024-03-22T11:53:16;21.70;93.20
11961;DHT22;6040;49.358;11.140;2024-03-22T11:55:42;22.10;91.30
11961;DHT22;6040;49.358;11.140;2024-03-22T11:58:09;22.40;89.50
11961;DHT22;6040;49.358;11.140;2024-03-22T12:00:35;22.20;85.20
11961;DHT22;6040;49.358;11.140;2024-03-22T12:03:04;21.80;90.40
11961;DHT22;6040;49.358;11.140;2024-03-22T12:05:32;21.80;92.00
11961;DHT22;6040;49.358;11.140;2024-03-22T12:07:59;21.50;92.00
11961;DHT22;6040;49.358;11.140;2024-03-22T12:10:25;21.50;91.80
11961;DHT22;6040;49.358;11.140;2024-03-22T12:12:52;21.40;90.00
11961;DHT22;6040;49.358;11.140;2024-03-22T12:15:19;21.40;91.10
11961;DHT22;6040;49.358;11.140;2024-03-22T12:17:46;21.00;92.40
11961;DHT22;6040;49.358;11.140;2024-03-22T12:20:11;21.10;93.10
11961;DHT22;6040;49.358;11.140;2024-03-22T12:22:41;21.50;92.30
11961;DHT22;6040;49.358;11.140;2024-03-22T12:25:08;21.30;93.40
11961;DHT22;6040;49.358;11.140;2024-03-22T12:27:35;21.50;91.00
11961;DHT22;6040;49.358;11.140;2024-03-22T12:30:01;21.50;92.30
11961;DHT22;6040;49.358;11.140;2024-03-22T12:32:28;21.50;93.50
11961;DHT22;6040;49.358;11.140;2024-03-22T12:34:54;21.30;93.60
11961;DHT22;6040;49.358;11.140;2024-03-22T12:37:21;21.60;94.00
11961;DHT22;6040;49.358;11.140;2024-03-22T12:39:48;21.00;90.00
11961;DHT22;6040;49.358;11.140;2024-03-22T12:42:15;21.10;93.40
11961;DHT22;6040;49.358;11.140;2024-03-22T12:44:41;21.20;94.20
11961;DHT22;6040;49.358;11.140;2024-03-22T12:47:07;21.40;94.80
11961;DHT22;6040;49.358;11.140;2024-03-22T12:49:34;21.30;90.80
11961;DHT22;6040;49.358;11.140;2024-03-22T12:52:01;21.40;90.10
11961;DHT22;6040;49.358;11.140;2024-03-22T12:54:26;21.30;92.90
11961;DHT22;6040;49.358;11.140;2024-03-22T12:56:54;21.40;91.70
11961;DHT22;6040;49.358;11.140;2024-03-22T12:59:21;22.70;93.20
11961;DHT22;6040;49.358;11.140;2024-03-22T13:01:48;21.20;92.80
11961;DHT22;6040;49.358;11.140;2024-03-22T13:04:14;21.00;92.50
11961;DHT22;6040;49.358;11.140;2024-03-22T13:06:43;20.40;94.00
11961;DHT22;6040;49.358;11.140;2024-03-22T13:09:09;20.30;94.90
11961;DHT22;6040;49.358;11.140;2024-03-22T13:11:36;20.20;94.60
11961;DHT22;6040;49.358;11.140;2024-03-22T13:14:04;20.30;99.20
11961;DHT22;6040;49.358;11.140;2024-03-22T13:16:30;20.10;99.30
11961;DHT22;6040;49.358;11.140;2024-03-22T13:18:56;20.80;99.90
11961;DHT22;6040;49.358;11.140;2024-03-22T13:21:23;19.80;99.90
11961;DHT22;6040;49.358;11.140;2024-03-22T13:23:49;19.40;96.70
11961;DHT22;6040;49.358;11.140;2024-03-22T13:26:16;19.20;97.20
11961;DHT22;6040;49.358;11.140;2024-03-22T13:28:41;19.00;97.60
11961;DHT22;6040;49.358;11.140;2024-03-22T13:31:10;19.00;99.90
11961;DHT22;6040;49.358;11.140;2024-03-22T13:33:36;18.80;96.50
11961;DHT22;6040;49.358;11.140;2024-03-22T13:36:03;18.60;97.10
11961;DHT22;6040;49.358;11.140;2024-03-22T13:38:30;18.60;95.20
11961;DHT22;6040;49.358;11.140;2024-03-22T13:40:57;18.60;99.90
11961;DHT22;6040;49.358;11.140;2024-03-22T13:43:25;20.00;97.80
11961;DHT22;6040;49.358;11.140;2024-03-22T13:45:52;18.90;97.00
11961;DHT22;6040;49.358;11.140;2024-03-22T13:48:21;20.00;96.10
11961;DHT22;6040;49.358;11.140;2024-03-22T13:50:50;19.30;95.80
11961;DHT22;6040;49.358;11.140;2024-03-22T13:53:16;19.30;95.70
11961;DHT22;6040;49.358;11.140;2024-03-22T13:55:43;19.20;96.30
11961;DHT22;6040;49.358;11.140;2024-03-22T13:58:09;19.50;96.50
11961;DHT22;6040;49.358;11.140;2024-03-22T14:00:36;19.50;95.70
11961;DHT22;6040;49.358;11.140;2024-03-22T14:03:01;19.60;95.10
11961;DHT22;6040;49.358;11.140;2024-03-22T14:05:30;19.40;96.00
11961;DHT22;6040;49.358;11.140;2024-03-22T14:07:56;19.80;97.40
11961;DHT22;6040;49.358;11.140;2024-03-22T14:10:23;20.10;99.90
11961;DHT22;6040;49.358;11.140;2024-03-22T14:12:50;20.20;99.90
11961;DHT22;6040;49.358;11.140;2024-03-22T14:15:17;19.80;99.90
11961;DHT22;6040;49.358;11.140;2024-03-22T14:17:43;20.00;99.90
11961;DHT22;6040;49.358;11.140;2024-03-22T14:20:10;19.90;99.90
11961;DHT22;6040;49.358;11.140;2024-03-22T14:22:38;19.70;97.80
11961;DHT22;6040;49.358;11.140;2024-03-22T14:25:06;19.60;99.90
11961;DHT22;6040;49.358;11.140;2024-03-22T14:27:32;19.50;97.20
11961;DHT22;6040;49.358;11.140;2024-03-22T14:29:59;19.40;97.70
11961;DHT22;6040;49.358;11.140;2024-03-22T14:32:25;19.40;97.70
11961;DHT22;6040;49.358;11.140;2024-03-22T14:34:53;19.50;97.90
11961;DHT22;6040;49.358;11.140;2024-03-22T14:37:19;20.50;99.40
11961;DHT22;6040;49.358;11.140;2024-03-22T14:39:47;19.40;99.90
11961;DHT22;6040;49.358;11.140;2024-03-22T14:42:13;19.30;99.90
11961;DHT22;6040;49.358;11.140;2024-03-22T14:44:40;19.80;98.50
11961;DHT22;6040;49.358;11.140;2024-03-22T14:47:06;19.30;97.70
11961;DHT22;6040;49.358;11.140;2024-03-22T14:49:33;19.10;97.30
11961;DHT22;6040;49.358;11.140;2024-03-22T14:52:00;19.20;99.50
11961;DHT22;6040;49.358;11.140;2024-03-22T14:54:26;19.40;99.90
11961;DHT22;6040;49.358;11.140;2024-03-22T14:56:54;19.10;99.40
11961;DHT22;6040;49.358;11.140;2024-03-22T14:59:20;20.00;99.70
11961;DHT22;6040;49.358;11.140;2024-03-22T15:01:46;18.80;99.90
11961;DHT22;6040;49.358;11.140;2024-03-22T15:04:13;18.80;99.90
11961;DHT22;6040;49.358;11.140;2024-03-22T15:06:39;18.90;99.90
11961;DHT22;6040;49.358;11.140;2024-03-22T15:09:06;19.40;99.90
11961;DHT22;6040;49.358;11.140;2024-03-22T15:11:36;18.50;97.50
11961;DHT22;6040;49.358;11.140;2024-03-22T15:14:04;18.40;96.30
11961;DHT22;6040;49.358;11.140;2024-03-22T15:16:31;18.20;97.00
11961;DHT22;6040;49.358;11.140;2024-03-22T15:18:58;19.80;97.50
11961;DHT22;6040;49.358;11.140;2024-03-22T15:21:24;19.70;98.40
11961;DHT22;6040;49.358;11.140;2024-03-22T15:23:51;18.30;97.30
11961;DHT22;6040;49.358;11.140;2024-03-22T15:26:16;18.00;97.50
11961;DHT22;6040;49.358;11.140;2024-03-22T15:28:43;18.10;98.00
11961;DHT22;6040;49.358;11.140;2024-03-22T15:31:11;18.00;99.90
11961;DHT22;6040;49.358;11.140;2024-03-22T15:33:38;18.40;99.50
11961;DHT22;6040;49.358;11.140;2024-03-22T15:36:04;18.10;99.90
11961;DHT22;6040;49.358;11.140;2024-03-22T15:38:31;18.00;98.80
11961;DHT22;6040;49.358;11.140;2024-03-22T15:40:57;17.90;99.90
11961;DHT22;6040;49.358;11.140;2024-03-22T15:43:24;17.90;97.90
11961;DHT22;6040;49.358;11.140;2024-03-22T15:45:50;17.90;98.80
11961;DHT22;6040;49.358;11.140;2024-03-22T15:48:19;17.80;99.90
11961;DHT22;6040;49.358;11.140;2024-03-22T15:50:47;17.90;99.00
11961;DHT22;6040;49.358;11.140;2024-03-22T15:53:14;17.90;99.40
11961;DHT22;6040;49.358;11.140;2024-03-22T15:55:40;17.80;99.40
11961;DHT22;6040;49.358;11.140;2024-03-22T15:58:06;17.70;99.90